Time;durP1;ratioP1;P1;durP2;ratioP2;P2;SDS_P1;SDS_P2;PMS_P1;PMS_P2;Temp;Humidity;BMP_temperature;BMP_pressure;BME280_temperature;BME280_humidity;BME280_pressure;Samples;Min_cycle;Max_cycle;Signal;HPM_P1;HPM_P2
2021/05/28 00:01:58;;;;;;;;;;;;;;;25.19;52.39;100458.89;1681902;85;20273;-79
2021/05/28 00:04:24;;;;;;;;;;;;;;;25.04;52.66;100455.38;1682864;85;20186;-79
2021/05/28 00:06:50;;;;;;;;;;;;;;;24.93;52.94;100450.83;1682119;85;20250;-80
2021/05/28 00:09:16;;;;;;;;;;;;;;;24.92;52.97;100451.38;1681685;85;20186;-79
2021/05/28 00:11:42;;;;;;;;;;;;;;;24.93;52.98;100452.20;1681719;85;20185;-80
2021/05/28 00:14:09;;;;;;;;;;;;;;;24.93;53.03;100452.20;1681786;84;20622;-80
2021/05/28 00:16:36;;;;;;;;;;;;;;;24.92;53.10;100445.89;1681768;85;20178;-80
2021/05/28 00:19:04;;;;;;;;;;;;;;;24.96;53.14;100436.63;1681512;85;20257;-80
2021/05/28 00:21:30;;;;;;;;;;;;;;;24.96;53.11;100436.63;1682096;85;20266;-79
2021/05/28 00:23:57;;;;;;;;;;;;;;;25.37;52.21;100440.73;1682518;85;20201;-79
2021/05/28 00:26:23;;;;;;;;;;;;;;;25.32;52.36;100443.42;1682110;85;20257;-79
2021/05/28 00:28:49;;;;;;;;;;;;;;;25.09;52.92;100447.25;1681737;85;20185;-80
2021/05/28 00:31:17;;;;;;;;;;;;;;;25.06;53.04;100443.61;1681553;85;20571;-80
2021/05/28 00:33:43;;;;;;;;;;;;;;;25.02;53.11;100441.09;1681587;85;20174;-80
2021/05/28 00:36:09;;;;;;;;;;;;;;;24.98;53.06;100442.16;1681645;85;20257;-80
2021/05/28 00:38:35;;;;;;;;;;;;;;;24.96;53.07;100447.59;1681616;85;20233;-80
2021/05/28 00:41:01;;;;;;;;;;;;;;;24.93;53.15;100445.35;1681836;85;20221;-80
2021/05/28 00:43:27;;;;;;;;;;;;;;;24.90;53.19;100443.97;1681800;85;20280;-79
2021/05/28 00:45:53;;;;;;;;;;;;;;;24.91;53.24;100437.94;1682706;85;20202;-79
2021/05/28 00:48:21;;;;;;;;;;;;;;;24.91;53.33;100432.46;1681826;85;20278;-80
2021/05/28 00:50:47;;;;;;;;;;;;;;;24.88;53.42;100422.00;1681855;85;20238;-80
2021/05/28 00:53:13;;;;;;;;;;;;;;;24.91;53.57;100421.50;1681718;85;20189;-81
2021/05/28 00:55:39;;;;;;;;;;;;;;;24.97;53.54;100418.56;1681766;85;20225;-80
2021/05/28 00:58:05;;;;;;;;;;;;;;;25.00;53.68;100414.50;1681814;85;20222;-80
2021/05/28 01:00:33;;;;;;;;;;;;;;;24.96;53.96;100416.91;1684155;84;20589;-80
2021/05/28 01:02:58;;;;;;;;;;;;;;;24.96;54.20;100421.56;1682011;85;20221;-80
2021/05/28 01:05:24;;;;;;;;;;;;;;;24.95;54.34;100424.02;1681440;85;20316;-80
2021/05/28 01:07:50;;;;;;;;;;;;;;;25.03;54.13;100420.84;1682008;85;20201;-80
2021/05/28 01:10:16;;;;;;;;;;;;;;;24.93;54.30;100416.03;1682203;85;20293;-79
2021/05/28 01:12:42;;;;;;;;;;;;;;;24.94;54.39;100418.27;1681162;85;20249;-78
2021/05/28 01:15:09;;;;;;;;;;;;;;;24.93;54.35;100416.58;1680025;85;20306;-79
2021/05/28 01:17:35;;;;;;;;;;;;;;;24.93;54.33;100410.55;1679835;85;20281;-79
2021/05/28 01:20:06;;;;;;;;;;;;;;;24.93;54.40;100413.30;1679721;85;20250;-79
2021/05/28 01:22:33;;;;;;;;;;;;;;;24.91;54.56;100414.10;1679932;84;20281;-78
2021/05/28 01:25:00;;;;;;;;;;;;;;;24.92;54.58;100417.13;1680519;85;20274;-78
2021/05/28 01:27:28;;;;;;;;;;;;;;;24.93;54.55;100416.58;1681553;85;20206;-78
2021/05/28 01:29:54;;;;;;;;;;;;;;;24.91;54.72;100420.13;1680596;85;20602;-78
2021/05/28 01:32:20;;;;;;;;;;;;;;;24.88;54.82;100416.52;1679609;85;20273;-78
2021/05/28 01:34:46;;;;;;;;;;;;;;;24.88;54.84;100406.38;1680024;85;20268;-78
2021/05/28 01:37:13;;;;;;;;;;;;;;;24.88;54.79;100404.19;1679838;85;20205;-78
2021/05/28 01:39:44;;;;;;;;;;;;;;;24.89;54.76;100397.62;1679815;85;20711;-77
2021/05/28 01:42:10;;;;;;;;;;;;;;;24.91;54.62;100400.95;1679368;85;20313;-78
2021/05/28 01:44:36;;;;;;;;;;;;;;;24.89;54.65;100398.47;1679603;85;20693;-78
2021/05/28 01:47:02;;;;;;;;;;;;;;;24.87;54.55;100396.52;1679606;85;20270;-78
2021/05/28 01:49:28;;;;;;;;;;;;;;;24.89;54.46;100401.73;1679864;85;20257;-77
2021/05/28 01:51:54;;;;;;;;;;;;;;;24.89;54.45;100400.36;1656633;85;20288;-78
2021/05/28 01:54:22;;;;;;;;;;;;;;;24.89;54.46;100397.62;1680042;85;20666;-78
2021/05/28 01:56:50;;;;;;;;;;;;;;;24.91;54.42;100392.73;1679770;85;20265;-78
2021/05/28 01:59:19;;;;;;;;;;;;;;;24.89;54.42;100390.25;1679433;85;20313;-78
2021/05/28 02:01:45;;;;;;;;;;;;;;;24.91;54.37;100391.36;1654824;85;20285;-78
2021/05/28 02:04:12;;;;;;;;;;;;;;;24.91;54.37;100398.21;1680014;85;20609;-79
2021/05/28 02:06:38;;;;;;;;;;;;;;;24.90;54.38;100388.34;1680997;85;20273;-78
2021/05/28 02:09:05;;;;;;;;;;;;;;;24.91;54.42;100392.73;1681314;85;20261;-78
2021/05/28 02:11:33;;;;;;;;;;;;;;;24.90;54.46;100387.80;1679846;85;20266;-79
2021/05/28 02:13:59;;;;;;;;;;;;;;;24.96;54.27;100389.51;1680089;85;20246;-79
2021/05/28 02:16:26;;;;;;;;;;;;;;;24.89;54.45;100393.00;1657301;85;20282;-79
2021/05/28 02:18:53;;;;;;;;;;;;;;;24.99;54.22;100382.16;1680440;85;20692;-79
2021/05/28 02:21:19;;;;;;;;;;;;;;;24.90;54.54;100382.86;1679915;85;20563;-79
2021/05/28 02:23:45;;;;;;;;;;;;;;;24.89;54.59;100381.18;1681650;85;20338;-78
2021/05/28 02:26:11;;;;;;;;;;;;;;;24.88;54.60;100381.72;1681940;85;20229;-77
2021/05/28 02:28:37;;;;;;;;;;;;;;;24.89;54.64;100378.44;1679227;84;20231;-77
2021/05/28 02:31:03;;;;;;;;;;;;;;;24.89;54.70;100376.55;1676316;84;20229;-78
2021/05/28 02:33:30;;;;;;;;;;;;;;;24.90;54.72;100378.75;1676471;84;20194;-78
2021/05/28 02:35:56;;;;;;;;;;;;;;;24.89;54.76;100378.44;1675198;84;20251;-79
2021/05/28 02:38:22;;;;;;;;;;;;;;;25.08;54.34;100382.57;1675535;84;20223;-78
2021/05/28 02:40:48;;;;;;;;;;;;;;;24.91;54.66;100380.40;1675990;85;20247;-79
2021/05/28 02:43:14;;;;;;;;;;;;;;;24.90;54.70;100381.48;1676178;85;20202;-78
2021/05/28 02:45:40;;;;;;;;;;;;;;;24.89;54.78;100390.25;1676436;84;20261;-79
2021/05/28 02:48:07;;;;;;;;;;;;;;;24.88;54.81;100387.75;1677687;84;20219;-78
2021/05/28 02:50:33;;;;;;;;;;;;;;;24.87;54.85;100388.84;1676971;84;20247;-79
2021/05/28 02:53:00;;;;;;;;;;;;;;;24.87;54.83;100377.88;1674676;84;20750;-79
2021/05/28 02:55:29;;;;;;;;;;;;;;;24.85;54.82;100376.77;1675192;84;20279;-79
2021/05/28 02:57:55;;;;;;;;;;;;;;;24.87;54.81;100386.09;1676408;84;20231;-79
2021/05/28 03:00:22;;;;;;;;;;;;;;;24.87;54.87;100383.36;1674785;84;20213;-79
2021/05/28 03:02:48;;;;;;;;;;;;;;;24.91;54.92;100384.52;1674926;84;20234;-78
2021/05/28 03:05:14;;;;;;;;;;;;;;;24.91;54.98;100388.08;1674887;84;20589;-79
2021/05/28 03:07:40;;;;;;;;;;;;;;;24.92;55.06;100391.64;1676183;84;20194;-79
2021/05/28 03:10:07;;;;;;;;;;;;;;;24.94;55.06;100386.75;1677127;84;20285;-82
2021/05/28 03:12:33;;;;;;;;;;;;;;;25.02;54.88;100390.39;1676001;84;20231;-79
2021/05/28 03:14:59;;;;;;;;;;;;;;;24.99;54.97;100397.77;1681581;82;20598;-80
2021/05/28 03:17:25;;;;;;;;;;;;;;;25.01;54.99;100398.33;1682740;83;20246;-79
2021/05/28 03:19:53;;;;;;;;;;;;;;;25.10;54.78;100388.61;1681852;85;20712;-79
2021/05/28 03:22:35;;;;;;;;;;;;;;;25.01;54.87;100379.15;1681011;85;20290;-80
2021/05/28 03:25:07;;;;;;;;;;;;;;;25.03;54.81;100375.08;1681729;85;20254;-79
2021/05/28 03:27:33;;;;;;;;;;;;;;;25.04;54.77;100376.73;1681788;85;20269;-80
2021/05/28 03:29:59;;;;;;;;;;;;;;;25.07;54.74;100378.11;1683392;85;20197;-80
2021/05/28 03:32:25;;;;;;;;;;;;;;;25.08;54.67;100378.45;1682115;85;20619;-80
2021/05/28 03:34:53;;;;;;;;;;;;;;;25.07;54.65;100378.11;1679461;84;20250;-80
2021/05/28 03:37:20;;;;;;;;;;;;;;;25.08;54.62;100379.00;1680123;83;20251;-80
2021/05/28 03:39:46;;;;;;;;;;;;;;;25.08;54.60;100381.74;1660684;85;20475;-80
2021/05/28 03:42:12;;;;;;;;;;;;;;;25.12;54.55;100388.34;1681024;85;20281;-80
2021/05/28 03:44:38;;;;;;;;;;;;;;;25.15;54.61;100386.47;1680337;85;20209;-80
2021/05/28 03:47:04;;;;;;;;;;;;;;;25.13;54.61;100388.11;1680145;85;20288;-80
2021/05/28 03:49:32;;;;;;;;;;;;;;;25.13;54.48;100392.22;1681894;85;20278;-79
2021/05/28 03:51:58;;;;;;;;;;;;;;;25.13;54.43;100388.11;1664371;85;20253;-79
2021/05/28 03:54:24;;;;;;;;;;;;;;;25.15;54.44;100385.10;1682313;85;20242;-80
2021/05/28 03:56:52;;;;;;;;;;;;;;;25.21;54.27;100388.20;1653400;86;21932;-79
2021/05/28 03:59:18;;;;;;;;;;;;;;;25.16;54.27;100393.05;1692274;83;20533;-80
2021/05/28 04:01:44;;;;;;;;;;;;;;;25.16;54.20;100397.71;1687283;83;20228;-80
2021/05/28 04:04:10;;;;;;;;;;;;;;;25.22;53.97;100392.05;1676812;85;20333;-80
2021/05/28 04:06:36;;;;;;;;;;;;;;;25.17;54.10;100394.73;1696393;83;20263;-81
2021/05/28 04:09:03;;;;;;;;;;;;;;;25.17;54.13;100396.11;1704206;83;20769;-81
2021/05/28 04:11:29;;;;;;;;;;;;;;;25.19;54.11;100393.92;1706207;84;20205;-79
2021/05/28 04:13:56;;;;;;;;;;;;;;;25.18;54.02;100390.91;1680198;84;20278;-80
2021/05/28 04:16:23;;;;;;;;;;;;;;;25.21;53.85;100383.55;1674152;84;20546;-80
2021/05/28 04:18:49;;;;;;;;;;;;;;;25.22;53.59;100383.00;1684012;83;20241;-81
2021/05/28 04:21:15;;;;;;;;;;;;;;;25.21;53.51;100376.70;1681692;83;20242;-82
2021/05/28 04:23:42;;;;;;;;;;;;;;;25.23;53.46;100384.66;1691537;83;20202;-81
2021/05/28 04:26:08;;;;;;;;;;;;;;;25.20;53.53;100378.30;1667333;84;20325;-82
2021/05/28 04:28:35;;;;;;;;;;;;;;;25.27;53.40;100390.73;1663749;86;20247;-80
2021/05/28 04:31:02;;;;;;;;;;;;;;;25.23;53.43;100392.33;1649963;84;20227;-80
2021/05/28 04:33:30;;;;;;;;;;;;;;;25.21;53.53;100390.95;1646151;84;20252;-80
2021/05/28 04:35:56;;;;;;;;;;;;;;;25.20;53.60;100383.23;1636028;85;20208;-80
2021/05/28 04:38:22;;;;;;;;;;;;;;;25.18;53.68;100381.31;1625230;85;20249;-79
2021/05/28 04:40:50;;;;;;;;;;;;;;;25.19;53.76;100384.33;1637135;85;20264;-80
2021/05/28 04:43:16;;;;;;;;;;;;;;;25.18;53.86;100379.11;1680204;85;20313;-80
2021/05/28 04:45:42;;;;;;;;;;;;;;;25.19;53.89;100375.28;1645491;85;20216;-79
2021/05/28 04:48:09;;;;;;;;;;;;;;;25.20;54.07;100378.30;1634182;86;20300;-79
2021/05/28 04:50:36;;;;;;;;;;;;;;;25.27;54.17;100381.69;1676358;84;20253;-78
2021/05/28 04:53:03;;;;;;;;;;;;;;;25.34;54.28;100381.47;1707481;82;20645;-79
2021/05/28 04:55:30;;;;;;;;;;;;;;;25.43;54.40;100373.89;1713432;82;20266;-80
2021/05/28 04:57:56;;;;;;;;;;;;;;;25.50;54.45;100373.16;1679984;82;20472;-79
2021/05/28 05:00:23;;;;;;;;;;;;;;;25.58;54.45;100372.41;1677292;83;20281;-79
2021/05/28 05:02:49;;;;;;;;;;;;;;;25.64;53.85;100368.63;1652224;85;20331;-79
2021/05/28 05:05:15;;;;;;;;;;;;;;;25.71;53.71;100367.33;1683933;83;20196;-79
2021/05/28 05:07:43;;;;;;;;;;;;;;;25.78;53.63;100367.95;1686455;83;20575;-79
2021/05/28 05:10:11;;;;;;;;;;;;;;;25.89;53.19;100372.16;1648027;84;20280;-79
2021/05/28 05:12:37;;;;;;;;;;;;;;;26.00;52.56;100375.28;1634681;85;20453;-81
2021/05/28 05:15:04;;;;;;;;;;;;;;;26.02;52.22;100375.83;1638560;86;20280;-81
2021/05/28 05:17:30;;;;;;;;;;;;;;;26.06;51.99;100372.84;1682420;83;20273;-81
2021/05/28 05:19:56;;;;;;;;;;;;;;;26.11;51.70;100374.25;1685246;83;20217;-79
2021/05/28 05:22:24;;;;;;;;;;;;;;;26.14;51.46;100369.63;1681532;83;20275;-80
2021/05/28 05:24:50;;;;;;;;;;;;;;;26.17;51.17;100370.48;1650955;84;20256;-80
2021/05/28 05:27:17;;;;;;;;;;;;;;;26.23;50.91;100369.41;1675912;83;20690;-80
2021/05/28 05:29:44;;;;;;;;;;;;;;;26.26;50.74;100375.76;1671164;83;20365;-80
2021/05/28 05:32:11;;;;;;;;;;;;;;;26.25;50.87;100372.73;1672163;83;20517;-80
2021/05/28 05:34:36;;;;;;;;;;;;;;;26.29;50.67;100373.84;1692146;82;20216;-79
2021/05/28 05:37:07;;;;;;;;;;;;;;;26.15;50.85;100375.94;1650737;85;20213;-81
2021/05/28 05:39:34;;;;;;;;;;;;;;;26.33;50.22;100365.08;1624095;84;20302;-79
2021/05/28 05:42:01;;;;;;;;;;;;;;;26.37;50.08;100362.09;1618722;86;20271;-79
2021/05/28 05:44:28;;;;;;;;;;;;;;;26.40;49.93;100367.88;1618822;86;20306;-80
2021/05/28 05:46:54;;;;;;;;;;;;;;;26.39;49.77;100368.98;1679504;82;20370;-80
2021/05/28 05:49:20;;;;;;;;;;;;;;;26.41;49.75;100368.70;1679626;83;20430;-80
2021/05/28 05:51:46;;;;;;;;;;;;;;;26.43;49.64;100366.51;1682874;82;20475;-79
2021/05/28 05:54:30;;;;;;;;;;;;;;;26.42;49.79;100364.86;1675722;83;20600;-80
2021/05/28 05:57:00;;;;;;;;;;;;;;;26.44;49.99;100364.09;1614597;85;20291;-80
2021/05/28 05:59:29;;;;;;;;;;;;;;;26.53;50.02;100366.07;1673949;83;20357;-78
2021/05/28 06:01:55;;;;;;;;;;;;;;;26.62;49.78;100366.95;1684309;83;20742;-81
2021/05/28 06:04:21;;;;;;;;;;;;;;;26.72;49.59;100366.99;1678657;83;20325;-79
2021/05/28 06:06:47;;;;;;;;;;;;;;;26.78;49.30;100366.73;1679395;83;20356;-80
2021/05/28 06:09:15;;;;;;;;;;;;;;;26.87;49.08;100371.17;1649152;84;20349;-80
2021/05/28 06:11:41;;;;;;;;;;;;;;;26.93;48.90;100363.77;1672385;82;20260;-80
2021/05/28 06:14:07;;;;;;;;;;;;;;;26.98;48.79;100365.16;1678607;83;20308;-80
2021/05/28 06:16:33;;;;;;;;;;;;;;;27.02;48.42;100362.16;1683928;83;20231;-80
2021/05/28 06:18:59;;;;;;;;;;;;;;;27.02;48.34;100364.91;1678182;83;20186;-79
2021/05/28 06:21:25;;;;;;;;;;;;;;;27.02;48.35;100356.66;1666859;82;20281;-80
2021/05/28 06:24:09;;;;;;;;;;;;;;;27.08;48.42;100357.52;1691829;82;20327;-80
2021/05/28 06:26:35;;;;;;;;;;;;;;;27.14;48.43;100356.47;1687121;83;20380;-80
2021/05/28 06:29:02;;;;;;;;;;;;;;;27.23;47.80;100354.28;1701437;82;20332;-80
2021/05/28 06:31:29;;;;;;;;;;;;;;;27.34;47.77;100357.05;1685966;83;20296;-79
2021/05/28 06:33:55;;;;;;;;;;;;;;;27.49;47.66;100355.72;1676863;83;20294;-79
2021/05/28 06:36:24;;;;;;;;;;;;;;;27.65;47.40;100356.55;1673589;83;20358;-80
2021/05/28 06:38:51;;;;;;;;;;;;;;;27.80;47.14;100357.44;1675230;83;20277;-80
2021/05/28 06:41:17;;;;;;;;;;;;;;;28.05;46.62;100359.89;1674162;83;20470;-81
2021/05/28 06:43:45;;;;;;;;;;;;;;;28.17;46.15;100352.18;1678297;83;20296;-81
2021/05/28 06:46:13;;;;;;;;;;;;;;;28.30;45.42;100350.23;1670329;83;20279;-81
2021/05/28 06:48:41;;;;;;;;;;;;;;;28.40;44.50;100345.28;1666838;82;20305;-81
2021/05/28 06:51:07;;;;;;;;;;;;;;;28.48;44.06;100339.20;1670135;82;20341;-80
2021/05/28 06:53:33;;;;;;;;;;;;;;;28.58;44.01;100341.66;1626419;84;20348;-80
2021/05/28 06:56:04;;;;;;;;;;;;;;;28.70;43.52;100347.09;1656519;85;20213;-81
2021/05/28 06:58:31;;;;;;;;;;;;;;;28.83;43.32;100342.36;1673417;82;20597;-80
2021/05/28 07:00:59;;;;;;;;;;;;;;;29.03;43.05;100337.91;1615034;85;20280;-81
2021/05/28 07:03:27;;;;;;;;;;;;;;;29.15;42.92;100335.61;1625719;86;20307;-80
2021/05/28 07:05:54;;;;;;;;;;;;;;;29.31;42.67;100336.36;1629251;86;20307;-81
2021/05/28 07:08:20;;;;;;;;;;;;;;;29.46;42.29;100340.39;1631259;85;20347;-80
2021/05/28 07:10:50;;;;;;;;;;;;;;;29.61;41.94;100333.13;1637074;86;20635;-81
2021/05/28 07:13:17;;;;;;;;;;;;;;;29.71;41.65;100329.75;1624446;85;21995;-79
2021/05/28 07:15:54;;;;;;;;;;;;;;;29.84;41.44;100331.00;1618828;85;20331;-79
2021/05/28 07:18:28;;;;;;;;;;;;;;;29.93;41.29;100334.82;1615814;86;20315;-78
2021/05/28 07:20:57;;;;;;;;;;;;;;;30.07;40.88;100337.73;1629566;85;20723;-78
2021/05/28 07:23:25;;;;;;;;;;;;;;;30.21;40.91;100337.90;1632373;85;20338;-77
2021/05/28 07:25:51;;;;;;;;;;;;;;;30.17;40.75;100333.51;1634822;85;20349;-77
2021/05/28 07:28:17;;;;;;;;;;;;;;;30.44;40.11;100326.59;1629943;86;20184;-77
2021/05/28 07:30:47;;;;;;;;;;;;;;;30.60;39.66;100326.67;1632300;85;20254;-78
2021/05/28 07:33:12;;;;;;;;;;;;;;;30.72;39.09;100318.81;1635763;85;21116;-78
2021/05/28 07:35:38;;;;;;;;;;;;;;;30.83;38.90;100320.31;1659511;84;20262;-78
2021/05/28 07:38:04;;;;;;;;;;;;;;;30.94;38.60;100327.94;1640314;85;20237;-77
2021/05/28 07:40:31;;;;;;;;;;;;;;;31.04;38.54;100331.94;1645711;84;20283;-78
2021/05/28 07:42:57;;;;;;;;;;;;;;;31.13;38.32;100323.80;1640134;84;20279;-77
2021/05/28 07:45:24;;;;;;;;;;;;;;;31.23;38.01;100329.18;1631333;84;20211;-80
2021/05/28 07:47:53;;;;;;;;;;;;;;;31.35;37.12;100321.86;1641871;84;20192;-78
2021/05/28 07:50:20;;;;;;;;;;;;;;;31.45;36.95;100325.84;1635229;85;20252;-78
2021/05/28 07:52:46;;;;;;;;;;;;;;;31.53;35.31;100327.11;1636448;84;20814;-79
2021/05/28 07:55:12;;;;;;;;;;;;;;;31.59;34.01;100330.05;1630675;84;20350;-78
2021/05/28 07:57:38;;;;;;;;;;;;;;;31.63;34.25;100333.05;1629271;84;20716;-79
2021/05/28 08:00:06;;;;;;;;;;;;;;;31.70;34.59;100326.55;1633784;84;20324;-79
2021/05/28 08:02:33;;;;;;;;;;;;;;;31.77;33.76;100321.45;1632866;84;20355;-77
2021/05/28 08:05:03;;;;;;;;;;;;;;;31.81;32.38;100321.92;1627149;85;20268;-78
2021/05/28 08:07:29;;;;;;;;;;;;;;;31.86;31.81;100321.61;1638650;84;20287;-78
2021/05/28 08:09:55;;;;;;;;;;;;;;;31.87;32.07;100319.09;1619838;85;20294;-77
2021/05/28 08:12:22;;;;;;;;;;;;;;;31.88;31.50;100320.73;1638426;84;20232;-77
2021/05/28 08:14:49;;;;;;;;;;;;;;;31.87;31.64;100311.60;1620219;86;20284;-77
2021/05/28 08:17:15;;;;;;;;;;;;;;;31.88;31.69;100316.58;1676891;82;20319;-79
2021/05/28 08:19:41;;;;;;;;;;;;;;;31.88;31.65;100313.81;1675665;83;20290;-78
2021/05/28 08:22:07;;;;;;;;;;;;;;;31.87;31.64;100310.78;1677900;83;20696;-78
2021/05/28 08:24:36;;;;;;;;;;;;;;;31.88;31.55;100313.24;1657508;83;20249;-78
2021/05/28 08:27:04;;;;;;;;;;;;;;;31.92;31.26;100312.89;1681671;82;20276;-78
2021/05/28 08:29:30;;;;;;;;;;;;;;;31.91;31.83;100314.03;1672005;83;20753;-76
2021/05/28 08:31:56;;;;;;;;;;;;;;;31.98;32.20;100312.27;1675313;82;20234;-78
2021/05/28 08:34:30;;;;;;;;;;;;;;;31.99;31.27;100309.75;1672514;84;20199;-79
2021/05/28 08:36:59;;;;;;;;;;;;;;;31.99;30.68;100309.75;1674092;83;20308;-78
2021/05/28 08:39:25;;;;;;;;;;;;;;;31.99;30.92;100308.36;1675032;82;20242;-78
2021/05/28 08:41:51;;;;;;;;;;;;;;;31.92;31.39;100296.84;1679438;82;20284;-78
2021/05/28 08:44:23;;;;;;;;;;;;;;;31.90;31.80;100293.56;1679498;82;20208;-79
2021/05/28 08:46:46;;;;;;;;;;;;;;;31.86;32.01;100292.53;1680667;83;20239;-79
2021/05/28 08:49:15;;;;;;;;;;;;;;;31.83;32.20;100293.38;1674009;83;20280;-78
2021/05/28 08:51:41;;;;;;;;;;;;;;;31.78;32.38;100285.13;1645024;85;20288;-78
2021/05/28 08:54:07;;;;;;;;;;;;;;;31.73;32.57;100283.84;1675226;82;20267;-79
2021/05/28 08:56:34;;;;;;;;;;;;;;;31.68;33.34;100278.96;1676817;83;20753;-79
2021/05/28 08:59:00;;;;;;;;;;;;;;;31.66;33.48;100276.50;1670249;83;20337;-78
2021/05/28 09:01:26;;;;;;;;;;;;;;;31.64;33.88;100270.43;1676495;82;20200;-79
2021/05/28 09:04:02;;;;;;;;;;;;;;;31.63;33.94;100275.72;1679889;82;20201;-77
2021/05/28 09:06:42;;;;;;;;;;;;;;;31.62;34.16;100277.41;1681402;83;20224;-80
2021/05/28 09:09:16;;;;;;;;;;;;;;;31.52;34.52;100271.46;1678200;83;20204;-79
2021/05/28 09:12:00;;;;;;;;;;;;;;;31.44;34.75;100265.25;1680613;82;20214;-81
2021/05/28 09:14:40;;;;;;;;;;;;;;;31.41;34.76;100269.43;1682939;83;21006;-78
2021/05/28 09:17:08;;;;;;;;;;;;;;;31.33;35.41;100269.55;1677353;84;20300;-80
2021/05/28 09:19:38;;;;;;;;;;;;;;;31.29;35.58;100264.92;1667302;83;20277;-79
2021/05/28 09:22:10;;;;;;;;;;;;;;;31.21;35.41;100266.97;1672290;83;20246;-79
2021/05/28 09:24:39;;;;;;;;;;;;;;;31.14;35.74;100264.57;1679991;82;20662;-79
2021/05/28 09:27:27;;;;;;;;;;;;;;;31.08;35.54;100257.48;1682416;82;20273;-78
2021/05/28 09:30:19;;;;;;;;;;;;;;;31.05;35.29;100256.12;1676652;83;20285;-79
2021/05/28 09:32:45;;;;;;;;;;;;;;;30.99;35.65;100255.13;1649025;83;20285;-78
2021/05/28 09:35:13;;;;;;;;;;;;;;;30.92;35.34;100255.48;1674472;83;20543;-78
2021/05/28 09:40:22;;;;;;;;;;;;;;;30.84;34.93;100254.77;1638174;84;20688;-77
2021/05/28 09:42:57;;;;;;;;;;;;;;;30.78;35.17;100244.91;1683271;83;20293;-78
2021/05/28 09:45:36;;;;;;;;;;;;;;;30.74;35.26;100243.85;1676370;83;20300;-78
2021/05/28 09:48:17;;;;;;;;;;;;;;;30.69;35.40;100230.89;1675143;82;20284;-79
2021/05/28 09:50:50;;;;;;;;;;;;;;;30.66;35.53;100234.27;1670048;83;20288;-78
2021/05/28 09:53:36;;;;;;;;;;;;;;;30.63;35.33;100222.98;1669854;83;20270;-79
2021/05/28 09:56:31;;;;;;;;;;;;;;;30.58;35.54;100225.25;1674953;83;20285;-78
2021/05/28 09:59:05;;;;;;;;;;;;;;;30.56;35.25;100223.33;1679944;83;20274;-78
2021/05/28 10:01:38;;;;;;;;;;;;;;;30.52;35.45;100218.12;1670615;83;20290;-78
2021/05/28 10:04:12;;;;;;;;;;;;;;;30.50;34.69;100222.58;1670935;83;20299;-79
2021/05/28 10:06:44;;;;;;;;;;;;;;;30.39;34.73;100212.80;1668260;84;20245;-79
2021/05/28 10:09:10;;;;;;;;;;;;;;;30.31;34.67;100216.20;1682460;82;20248;-80
2021/05/28 10:11:39;;;;;;;;;;;;;;;30.28;35.15;100212.08;1671556;83;20351;-78
2021/05/28 10:14:10;;;;;;;;;;;;;;;30.28;35.00;100207.94;1669263;84;20292;-80
2021/05/28 10:16:37;;;;;;;;;;;;;;;30.22;35.14;100200.84;1683066;83;20286;-80
2021/05/28 10:19:05;;;;;;;;;;;;;;;30.19;35.32;100208.32;1669922;83;20262;-78
2021/05/28 10:21:34;;;;;;;;;;;;;;;30.18;35.30;100198.39;1673117;83;20288;-77
2021/05/28 10:24:00;;;;;;;;;;;;;;;30.17;35.15;100189.85;1665881;83;20289;-77
2021/05/28 10:26:34;;;;;;;;;;;;;;;30.18;34.74;100192.05;1675154;83;20685;-78
2021/05/28 10:29:02;;;;;;;;;;;;;;;30.18;33.85;100189.29;1671715;84;20653;-79
2021/05/28 10:31:53;;;;;;;;;;;;;;;30.15;33.70;100189.31;1678236;82;20290;-78
2021/05/28 10:34:20;;;;;;;;;;;;;;;30.16;33.24;100178.55;1677673;84;20337;-77
2021/05/28 10:36:48;;;;;;;;;;;;;;;30.17;32.47;100179.36;1669698;83;20356;-79
2021/05/28 10:39:17;;;;;;;;;;;;;;;30.18;32.44;100174.91;1669897;83;20369;-79
2021/05/28 10:41:45;;;;;;;;;;;;;;;30.20;32.01;100178.75;1672837;83;20288;-80
2021/05/28 10:44:19;;;;;;;;;;;;;;;30.20;31.87;100179.58;1651930;85;20627;-78
2021/05/28 10:46:59;;;;;;;;;;;;;;;30.20;31.69;100176.81;1669870;83;20246;-79
2021/05/28 10:49:35;;;;;;;;;;;;;;;30.20;32.11;100174.05;1668660;82;21374;-79
2021/05/28 10:52:02;;;;;;;;;;;;;;;30.20;32.60;100185.09;1703947;82;20287;-79
2021/05/28 10:54:31;;;;;;;;;;;;;;;30.17;32.04;100184.33;1690499;82;20729;-78
2021/05/28 10:57:17;;;;;;;;;;;;;;;30.18;31.22;100177.67;1680350;83;20306;-79
2021/05/28 10:59:45;;;;;;;;;;;;;;;30.15;32.13;100182.97;1667084;84;20337;-79
2021/05/28 11:02:11;;;;;;;;;;;;;;;30.12;32.29;100177.45;1667345;83;20282;-80
2021/05/28 11:04:42;;;;;;;;;;;;;;;30.11;32.61;100179.11;1663488;85;20192;-81
2021/05/28 11:07:13;;;;;;;;;;;;;;;30.05;32.06;100176.98;1674624;83;20292;-79
2021/05/28 11:09:47;;;;;;;;;;;;;;;30.03;31.90;100166.80;1666678;84;20599;-78
2021/05/28 11:12:29;;;;;;;;;;;;;;;30.01;32.03;100166.25;1680665;83;20691;-78
2021/05/28 11:15:13;;;;;;;;;;;;;;;29.97;32.30;100163.81;1673769;82;20288;-79
2021/05/28 11:17:58;;;;;;;;;;;;;;;29.90;32.71;100161.42;1680581;82;20268;-77
2021/05/28 11:20:39;;;;;;;;;;;;;;;29.85;32.86;100160.10;1680709;82;20258;-81
2021/05/28 11:23:10;;;;;;;;;;;;;;;29.78;32.86;100156.30;1668207;83;20318;-81
2021/05/28 11:25:51;;;;;;;;;;;;;;;29.72;32.94;100158.03;1688107;82;20673;-79
2021/05/28 11:28:17;;;;;;;;;;;;;;;29.68;33.09;100159.73;1672580;84;20239;-79
2021/05/28 11:30:54;;;;;;;;;;;;;;;29.63;32.91;100160.61;1674033;83;20245;-80
2021/05/28 11:33:36;;;;;;;;;;;;;;;29.55;33.01;100160.68;1683705;83;20265;-78
2021/05/28 11:36:26;;;;;;;;;;;;;;;29.51;33.19;100162.34;1684560;83;20260;-80
2021/05/28 11:38:57;;;;;;;;;;;;;;;29.46;33.40;100161.02;1683570;83;20257;-78
2021/05/28 11:41:52;;;;;;;;;;;;;;;29.43;33.72;100160.77;1680120;82;20303;-81
2021/05/28 11:44:20;;;;;;;;;;;;;;;29.39;33.92;100155.56;1671720;85;20379;-80
2021/05/28 11:46:50;;;;;;;;;;;;;;;29.38;33.99;100145.65;1674148;82;20360;-77
2021/05/28 11:49:19;;;;;;;;;;;;;;;29.32;33.90;100143.50;1669493;83;20323;-78
2021/05/28 11:51:45;;;;;;;;;;;;;;;29.28;34.34;100136.36;1697527;83;20231;-76
2021/05/28 11:54:25;;;;;;;;;;;;;;;29.24;34.29;100140.80;1683333;83;20200;-78
2021/05/28 11:56:54;;;;;;;;;;;;;;;29.20;34.35;100138.91;1682780;83;20265;-79
2021/05/28 11:59:20;;;;;;;;;;;;;;;29.15;34.54;100140.34;1678922;83;20266;-78
2021/05/28 12:01:46;;;;;;;;;;;;;;;29.10;35.35;100137.08;1680311;83;20283;-79
2021/05/28 12:04:17;;;;;;;;;;;;;;;29.05;36.02;100135.74;1676807;82;20237;-79
2021/05/28 12:06:43;;;;;;;;;;;;;;;29.02;36.34;100131.64;1641397;84;20360;-77
2021/05/28 12:09:09;;;;;;;;;;;;;;;28.96;36.78;100125.06;1668084;82;20404;-79
2021/05/28 12:11:37;;;;;;;;;;;;;;;28.91;37.19;100123.70;1679306;83;20676;-79
2021/05/28 12:14:04;;;;;;;;;;;;;;;28.83;37.58;100117.68;1677592;83;20444;-78
2021/05/28 12:16:31;;;;;;;;;;;;;;;28.76;38.84;100117.20;1645335;86;20298;-78
2021/05/28 12:18:58;;;;;;;;;;;;;;;28.69;39.55;100116.69;1600460;86;20328;-81
2021/05/28 12:21:25;;;;;;;;;;;;;;;28.67;40.42;100107.90;1678585;82;20348;-82
2021/05/28 12:23:53;;;;;;;;;;;;;;;28.67;40.66;100103.77;1664685;84;20323;-79
2021/05/28 12:26:24;;;;;;;;;;;;;;;28.67;40.86;100100.19;1676246;82;20293;-79
2021/05/28 12:28:55;;;;;;;;;;;;;;;28.68;40.60;100096.31;1674244;83;20300;-79
2021/05/28 12:31:23;;;;;;;;;;;;;;;28.68;40.53;100094.37;1676851;84;20337;-78
2021/05/28 12:33:54;;;;;;;;;;;;;;;28.69;40.29;100089.69;1690962;82;20573;-77
2021/05/28 12:36:34;;;;;;;;;;;;;;;28.71;40.32;100088.30;1679638;82;20301;-77
2021/05/28 12:39:03;;;;;;;;;;;;;;;28.72;40.34;100083.05;1692332;82;20691;-79
2021/05/28 12:41:31;;;;;;;;;;;;;;;28.75;39.73;100083.86;1682388;83;20293;-77
2021/05/28 12:43:59;;;;;;;;;;;;;;;28.73;39.49;100079.18;1676371;83;20682;-77
2021/05/28 12:46:30;;;;;;;;;;;;;;;28.75;39.66;100070.08;1681056;83;20585;-77